Time;durP1;ratioP1;P1;durP2;ratioP2;P2;SDS_P1;SDS_P2;PMS_P1;PMS_P2;Temp;Humidity;BMP_temperature;BMP_pressure;BME280_temperature;BME280_humidity;BME280_pressure;Samples;Min_cycle;Max_cycle;Signal;HPM_P1;HPM_P2
2024/02/09 00:00:57;;;;;;;1999.90;999.90;;;11.70;99.90;;;;;;4937832;29;20414;-74
2024/02/09 00:03:23;;;;;;;1999.90;999.90;;;11.70;99.90;;;;;;4937870;29;20801;-75
2024/02/09 00:05:50;;;;;;;1999.90;999.90;;;11.70;99.90;;;;;;4938004;29;20408;-75
2024/02/09 00:08:20;;;;;;;1999.90;999.90;;;11.80;99.90;;;;;;4939769;29;20412;-72
2024/02/09 00:10:49;;;;;;;1999.90;999.90;;;11.80;99.90;;;;;;4936118;29;20447;-73
2024/02/09 00:13:16;;;;;;;1999.90;999.90;;;11.80;99.90;;;;;;4934416;29;20442;-72
2024/02/09 00:15:46;;;;;;;1999.90;999.90;;;11.70;99.90;;;;;;4934519;29;20413;-73
2024/02/09 00:18:16;;;;;;;1999.90;999.90;;;11.70;99.90;;;;;;4934299;29;20441;-73
2024/02/09 00:20:45;;;;;;;1999.90;999.90;;;11.70;99.90;;;;;;4934476;29;20417;-72
2024/02/09 00:23:18;;;;;;;1999.90;999.90;;;11.60;99.90;;;;;;4934676;29;20947;-73
2024/02/09 00:25:44;;;;;;;1999.90;999.90;;;11.60;99.90;;;;;;4934507;29;20418;-74
2024/02/09 00:28:11;;;;;;;1999.90;999.90;;;11.60;99.90;;;;;;4934181;29;20408;-74
2024/02/09 00:30:40;;;;;;;1999.90;999.90;;;11.50;99.90;;;;;;4934113;29;20452;-73
2024/02/09 00:33:10;;;;;;;1999.90;999.90;;;11.60;99.90;;;;;;4934377;29;20575;-71
2024/02/09 00:35:36;;;;;;;1999.90;999.90;;;11.50;99.90;;;;;;4934395;29;20535;-73
2024/02/09 00:38:03;;;;;;;1999.90;999.90;;;11.50;99.90;;;;;;4934130;29;20901;-73
2024/02/09 00:40:31;;;;;;;1999.90;999.90;;;11.50;99.90;;;;;;4934306;29;20416;-73
2024/02/09 00:43:01;;;;;;;1999.90;999.90;;;11.50;99.90;;;;;;4934013;29;20451;-72
2024/02/09 00:45:27;;;;;;;1999.90;999.90;;;11.50;99.90;;;;;;4934482;29;20789;-72
2024/02/09 00:47:55;;;;;;;1999.90;999.90;;;11.40;99.90;;;;;;4934232;29;20403;-73
2024/02/09 00:50:21;;;;;;;1999.90;999.90;;;11.30;99.90;;;;;;4933955;29;20490;-72
2024/02/09 00:52:53;;;;;;;1999.90;999.90;;;11.30;99.90;;;;;;4934132;29;20485;-73
2024/02/09 00:55:19;;;;;;;1999.90;999.90;;;11.20;99.90;;;;;;4934231;29;20171;-72
2024/02/09 00:57:45;;;;;;;1999.90;999.90;;;11.20;99.90;;;;;;4934146;29;20898;-72
2024/02/09 01:00:13;;;;;;;1999.90;999.90;;;11.10;99.90;;;;;;4934150;29;20419;-71
2024/02/09 01:02:39;;;;;;;1999.90;999.90;;;11.10;99.90;;;;;;4934016;29;20946;-72
2024/02/09 01:05:06;;;;;;;1999.90;999.90;;;11.10;99.90;;;;;;4934181;29;20787;-71
2024/02/09 01:07:32;;;;;;;1999.90;999.90;;;11.10;99.90;;;;;;4934187;29;20423;-71
2024/02/09 01:09:58;;;;;;;1999.90;999.90;;;11.10;99.90;;;;;;4934447;29;20471;-71
2024/02/09 02:45:15;;;;;;;1999.90;999.90;;;11.70;99.90;;;;;;4935941;29;20423;-72
2024/02/09 03:04:17;;;;;;;1999.90;999.90;;;11.60;99.90;;;;;;4935803;29;20184;-72
2024/02/09 03:04:19;;;;;;;1999.90;999.90;;;11.60;99.90;;;;;;4935648;29;20482;-72
2024/02/09 03:06:44;;;;;;;1999.90;999.90;;;11.60;99.90;;;;;;4935429;29;20423;-72
2024/02/09 03:09:10;;;;;;;1999.90;999.90;;;11.50;99.90;;;;;;4934861;29;20525;-72
2024/02/09 03:11:36;;;;;;;1999.90;999.90;;;11.50;99.90;;;;;;4935238;29;20179;-73
2024/02/09 03:14:01;;;;;;;1999.90;999.90;;;11.50;99.90;;;;;;4935267;29;20194;-72
2024/02/09 03:16:27;;;;;;;1999.90;999.90;;;11.50;99.90;;;;;;4935318;29;20167;-73
2024/02/09 03:18:53;;;;;;;1999.90;999.90;;;11.60;99.90;;;;;;4934963;29;20259;-72
2024/02/09 03:21:26;;;;;;;1999.90;999.90;;;11.50;99.90;;;;;;4935215;29;20168;-72
2024/02/09 03:23:56;;;;;;;1999.90;999.90;;;11.50;99.90;;;;;;4934938;29;20187;-72
2024/02/09 03:26:23;;;;;;;1999.90;999.90;;;11.50;99.90;;;;;;4935150;29;20457;-72
2024/02/09 03:28:50;;;;;;;1999.90;999.90;;;11.50;99.90;;;;;;4934854;29;20458;-72
2024/02/09 03:31:15;;;;;;;1999.90;999.90;;;11.50;99.90;;;;;;4935105;29;20446;-72
2024/02/09 03:33:42;;;;;;;1999.90;999.90;;;11.60;99.90;;;;;;4934345;29;20488;-73
2024/02/09 03:36:11;;;;;;;1999.90;999.90;;;11.50;99.90;;;;;;4934729;29;20182;-72
2024/02/09 03:38:36;;;;;;;1999.90;999.90;;;11.50;99.90;;;;;;4934712;29;20427;-72
2024/02/09 03:41:02;;;;;;;1999.90;999.90;;;11.50;99.90;;;;;;4934923;29;20443;-72
2024/02/09 03:43:28;;;;;;;1999.90;999.90;;;11.40;99.90;;;;;;4934606;29;20246;-72
2024/02/09 03:45:54;;;;;;;1999.90;999.90;;;11.40;99.90;;;;;;4934923;29;20180;-72
2024/02/09 03:48:19;;;;;;;1999.90;999.90;;;11.40;99.90;;;;;;4934520;29;20179;-73
2024/02/09 03:50:45;;;;;;;1999.90;999.90;;;11.50;99.90;;;;;;4934740;29;20462;-73
2024/02/09 03:53:14;;;;;;;1999.90;999.90;;;11.40;99.90;;;;;;4934629;29;20733;-73
2024/02/09 03:55:40;;;;;;;1999.90;999.90;;;11.40;99.90;;;;;;4934779;29;20163;-73
2024/02/09 03:58:06;;;;;;;1999.90;999.90;;;11.40;99.90;;;;;;4934482;29;20468;-73
2024/02/09 04:00:32;;;;;;;1999.90;999.90;;;11.40;99.90;;;;;;4934765;29;20519;-73
2024/02/09 04:02:58;;;;;;;1999.90;999.90;;;11.40;99.90;;;;;;4934421;29;20463;-73
2024/02/09 04:05:23;;;;;;;1999.90;999.90;;;11.30;99.90;;;;;;4934453;29;20194;-73
2024/02/09 04:07:50;;;;;;;1999.90;999.90;;;11.20;99.90;;;;;;4934500;29;20179;-73
2024/02/09 04:10:19;;;;;;;1999.90;999.90;;;11.20;99.90;;;;;;4934333;29;20286;-73
2024/02/09 04:12:45;;;;;;;1999.90;999.90;;;11.20;99.90;;;;;;4934494;29;20470;-73
2024/02/09 04:15:13;;;;;;;1999.90;999.90;;;11.20;99.90;;;;;;4934592;29;20418;-73
2024/02/09 04:17:39;;;;;;;1999.90;999.90;;;11.20;99.90;;;;;;4934500;29;20494;-72
2024/02/09 04:20:08;;;;;;;1999.90;999.90;;;11.10;99.90;;;;;;4934298;29;20501;-73
2024/02/09 04:22:35;;;;;;;1999.90;999.90;;;11.10;99.90;;;;;;4934436;29;20516;-73
2024/02/09 04:25:01;;;;;;;1999.90;999.90;;;11.10;99.90;;;;;;4934575;29;20414;-73
2024/02/09 04:27:27;;;;;;;1999.90;999.90;;;11.00;99.90;;;;;;4934582;29;20544;-72
2024/02/09 04:29:52;;;;;;;1999.90;999.90;;;11.00;99.90;;;;;;4934195;29;20443;-72
2024/02/09 04:32:18;;;;;;;1999.90;999.90;;;10.90;99.90;;;;;;4934375;29;20171;-73
2024/02/09 04:34:44;;;;;;;1999.90;999.90;;;10.90;99.90;;;;;;4934671;29;20178;-73
2024/02/09 04:37:11;;;;;;;1999.90;999.90;;;10.90;99.90;;;;;;4934340;29;20462;-72
2024/02/09 04:39:37;;;;;;;1999.90;999.90;;;10.90;99.90;;;;;;4934223;29;20545;-72
2024/02/09 04:42:03;;;;;;;1999.90;999.90;;;10.90;99.90;;;;;;4934332;29;20446;-72
2024/02/09 04:44:28;;;;;;;1999.90;999.90;;;10.90;99.90;;;;;;4934119;29;20739;-72
2024/02/09 04:46:54;;;;;;;1999.90;999.90;;;10.90;99.90;;;;;;4937974;29;20457;-73
2024/02/09 04:49:20;;;;;;;1999.90;999.90;;;11.00;99.90;;;;;;4937683;29;20199;-73
2024/02/09 04:51:46;;;;;;;1999.90;999.90;;;11.00;99.90;;;;;;4938033;29;20178;-72
2024/02/09 04:54:13;;;;;;;1999.90;999.90;;;11.00;99.90;;;;;;4937714;29;20453;-72
2024/02/09 04:56:38;;;;;;;1999.90;999.90;;;11.00;99.90;;;;;;4937807;29;20440;-72
2024/02/09 04:59:08;;;;;;;1999.90;999.90;;;11.10;99.90;;;;;;4937516;29;20608;-72
2024/02/09 05:01:39;;;;;;;1999.90;999.90;;;11.20;99.90;;;;;;4937757;29;20403;-73
2024/02/09 05:04:12;;;;;;;1999.90;999.90;;;11.30;99.90;;;;;;4937599;29;20557;-72
2024/02/09 05:06:39;;;;;;;1999.90;999.90;;;11.40;99.90;;;;;;4937606;29;20449;-72
2024/02/09 05:09:06;;;;;;;1999.90;999.90;;;11.40;99.90;;;;;;4937345;29;20469;-73
2024/02/09 05:11:34;;;;;;;1999.90;999.90;;;11.50;99.90;;;;;;4937571;29;20418;-72
2024/02/09 05:14:00;;;;;;;1999.90;999.90;;;11.50;99.90;;;;;;4937367;29;20798;-72
2024/02/09 05:16:27;;;;;;;1999.90;999.90;;;11.60;99.90;;;;;;4937636;29;20418;-72
2024/02/09 05:18:53;;;;;;;1999.90;999.90;;;11.60;99.90;;;;;;4937328;29;20206;-72
2024/02/09 05:21:19;;;;;;;1999.90;999.90;;;11.60;99.90;;;;;;4937989;29;20470;-73
2024/02/09 05:23:45;;;;;;;1999.90;999.90;;;11.70;99.90;;;;;;4938914;29;20211;-73
2024/02/09 05:26:12;;;;;;;1999.90;999.90;;;11.70;99.90;;;;;;4956490;28;20811;-72
2024/02/09 05:28:39;;;;;;;1999.90;999.90;;;11.80;99.90;;;;;;4956491;28;20462;-74
2024/02/09 05:31:22;;;;;;;1999.90;999.90;;;11.80;99.90;;;;;;4962046;28;20454;-74
2024/02/09 05:33:48;;;;;;;1999.90;999.90;;;11.90;99.90;;;;;;4961427;28;20954;-73
2024/02/09 05:36:21;;;;;;;1999.90;999.90;;;11.80;99.90;;;;;;4962487;28;20817;-74
2024/02/09 05:38:48;;;;;;;1999.90;999.90;;;11.90;99.90;;;;;;4960563;28;20408;-73
2024/02/09 05:41:15;;;;;;;1999.90;999.90;;;11.90;99.90;;;;;;4961992;28;20426;-74
2024/02/09 05:43:42;;;;;;;1999.90;999.90;;;11.90;99.90;;;;;;4962072;28;20457;-74
2024/02/09 05:46:07;;;;;;;1999.90;999.90;;;11.90;99.90;;;;;;4956209;28;20970;-74
2024/02/09 05:48:33;;;;;;;1999.90;999.90;;;11.80;99.90;;;;;;4955914;28;20416;-74
2024/02/09 05:50:59;;;;;;;1999.90;999.90;;;11.80;99.90;;;;;;4955973;28;20633;-73
2024/02/09 05:53:24;;;;;;;1999.90;999.90;;;11.90;99.90;;;;;;4955776;28;20214;-74
2024/02/09 05:55:51;;;;;;;1999.90;999.90;;;11.80;99.90;;;;;;4955865;28;20246;-73
2024/02/09 05:58:17;;;;;;;1999.90;999.90;;;11.80;99.90;;;;;;4955759;28;20167;-74
2024/02/09 06:00:43;;;;;;;1999.90;999.90;;;11.80;99.90;;;;;;4955834;28;20418;-74
2024/02/09 06:03:09;;;;;;;1999.90;999.90;;;11.80;99.90;;;;;;4955716;28;20252;-74
2024/02/09 06:05:40;;;;;;;1999.90;999.90;;;11.80;99.90;;;;;;4955719;28;20409;-73
2024/02/09 06:08:08;;;;;;;1999.90;999.90;;;11.70;99.90;;;;;;4955501;28;20412;-73
2024/02/09 06:10:34;;;;;;;1999.90;999.90;;;11.70;99.90;;;;;;4955766;28;20468;-73
2024/02/09 06:12:59;;;;;;;1999.90;999.90;;;11.70;99.90;;;;;;4955519;28;20928;-73
2024/02/09 06:15:25;;;;;;;1999.90;999.90;;;11.70;99.90;;;;;;4955733;28;20171;-74
2024/02/09 06:17:50;;;;;;;1999.90;999.90;;;11.70;99.90;;;;;;4955498;28;20698;-73
2024/02/09 06:20:19;;;;;;;1999.90;999.90;;;11.60;99.90;;;;;;4955176;28;20577;-73
2024/02/09 06:22:45;;;;;;;1999.90;999.90;;;11.60;99.90;;;;;;4955230;28;20277;-73
2024/02/09 06:25:10;;;;;;;1999.90;999.90;;;11.50;99.90;;;;;;4955360;28;20535;-73
2024/02/09 06:27:36;;;;;;;1999.90;999.90;;;11.60;99.90;;;;;;4955313;28;20776;-73
2024/02/09 06:30:02;;;;;;;1999.90;999.90;;;11.60;99.90;;;;;;4955018;28;20199;-73
2024/02/09 06:32:27;;;;;;;1999.90;999.90;;;11.60;99.90;;;;;;4955156;28;20187;-73
2024/02/09 06:34:53;;;;;;;1999.90;999.90;;;11.70;99.90;;;;;;4955232;28;20406;-72
2024/02/09 06:37:20;;;;;;;1999.90;999.90;;;11.70;99.90;;;;;;4962313;28;20177;-75
2024/02/09 06:39:46;;;;;;;1999.90;999.90;;;11.70;99.90;;;;;;4960076;28;20237;-75
2024/02/09 06:42:12;;;;;;;1999.90;999.90;;;11.50;99.90;;;;;;4961504;28;20427;-74
2024/02/09 06:44:42;;;;;;;1999.90;999.90;;;11.70;99.90;;;;;;4960050;28;20441;-74
2024/02/09 06:47:12;;;;;;;1999.90;999.90;;;11.70;99.90;;;;;;4959992;28;20183;-73
2024/02/09 06:49:47;;;;;;;1999.90;999.90;;;11.70;99.90;;;;;;4961758;28;20447;-74
2024/02/09 06:52:13;;;;;;;1999.90;999.90;;;11.50;99.90;;;;;;4961595;28;20501;-72
2024/02/09 06:54:39;;;;;;;1999.90;999.90;;;11.70;99.90;;;;;;4959381;28;20456;-74
2024/02/09 06:57:06;;;;;;;1999.90;999.90;;;11.70;99.90;;;;;;4958442;28;20248;-71
2024/02/09 06:59:32;;;;;;;1999.90;999.90;;;11.70;99.90;;;;;;4955460;28;20418;-71
2024/02/09 07:01:59;;;;;;;1999.90;999.90;;;11.70;99.90;;;;;;4955789;28;20441;-71
2024/02/09 07:04:25;;;;;;;1999.90;999.90;;;11.60;99.90;;;;;;4955213;28;20437;-71
2024/02/09 07:06:51;;;;;;;1999.90;999.90;;;11.60;99.90;;;;;;4955526;28;20419;-71
2024/02/09 07:09:21;;;;;;;1999.90;999.90;;;11.70;99.90;;;;;;4954389;28;20207;-71
2024/02/09 07:11:50;;;;;;;1999.90;999.90;;;11.70;99.90;;;;;;4955274;28;20837;-71
2024/02/09 07:14:17;;;;;;;1999.90;999.90;;;11.80;99.90;;;;;;4955338;28;20438;-71
2024/02/09 07:16:46;;;;;;;1999.90;999.90;;;11.80;99.90;;;;;;4955280;28;20419;-71
2024/02/09 07:19:13;;;;;;;1999.90;999.90;;;11.90;99.90;;;;;;4955040;28;20406;-71
2024/02/09 07:21:42;;;;;;;1999.90;999.90;;;12.00;99.90;;;;;;4955560;28;20404;-71
2024/02/09 07:24:08;;;;;;;1999.90;999.90;;;12.00;99.90;;;;;;4955762;28;20437;-71
2024/02/09 07:26:34;;;;;;;1999.90;999.90;;;12.10;98.70;;;;;;4955533;28;20410;-71
2024/02/09 07:29:00;;;;;;;1999.90;999.90;;;12.10;95.30;;;;;;4955138;28;20511;-71
2024/02/09 07:31:26;;;;;;;1999.90;999.90;;;12.20;99.20;;;;;;4955215;28;20414;-71
2024/02/09 07:33:52;;;;;;;1999.90;999.90;;;12.20;99.90;;;;;;4955036;28;20419;-70
2024/02/09 07:36:18;;;;;;;1999.90;999.90;;;12.20;99.90;;;;;;4955145;28;20239;-71
2024/02/09 07:38:44;;;;;;;1999.90;999.90;;;12.20;99.90;;;;;;4955079;28;20497;-71
2024/02/09 07:41:11;;;;;;;1999.90;999.90;;;12.20;95.30;;;;;;4955035;28;20495;-71
2024/02/09 07:43:36;;;;;;;1999.90;999.90;;;12.20;94.10;;;;;;4955297;28;20214;-71
2024/02/09 07:46:03;;;;;;;1999.90;999.90;;;12.40;99.90;;;;;;4955166;28;20969;-72
2024/02/09 07:48:29;;;;;;;1999.90;999.90;;;12.30;88.00;;;;;;4953784;28;20178;-70
2024/02/09 07:50:56;;;;;;;1999.90;999.90;;;12.30;99.90;;;;;;4953902;28;20515;-70
2024/02/09 07:53:21;;;;;;;1999.90;999.90;;;12.30;99.90;;;;;;4953894;28;20210;-71
2024/02/09 07:55:47;;;;;;;1999.90;999.90;;;12.30;99.90;;;;;;4953854;28;20414;-70
2024/02/09 07:58:12;;;;;;;1999.90;999.90;;;12.20;99.90;;;;;;4953656;28;20280;-70
2024/02/09 08:00:38;;;;;;;1999.90;999.90;;;12.20;99.90;;;;;;4953801;28;20185;-70
2024/02/09 08:03:04;;;;;;;1999.90;999.90;;;12.20;99.90;;;;;;4953802;28;20203;-69
2024/02/09 08:05:29;;;;;;;1999.90;999.90;;;12.20;99.90;;;;;;4953972;28;20605;-70
2024/02/09 08:07:55;;;;;;;1999.90;999.90;;;12.20;99.90;;;;;;4953848;28;20181;-70
2024/02/09 08:10:20;;;;;;;1999.90;999.90;;;12.20;99.90;;;;;;4953441;28;20600;-70
2024/02/09 08:12:46;;;;;;;1999.90;999.90;;;12.30;99.90;;;;;;4953683;28;20190;-70
2024/02/09 08:15:12;;;;;;;1999.90;999.90;;;12.30;99.90;;;;;;4953661;28;20175;-69
2024/02/09 08:17:39;;;;;;;1999.90;999.90;;;12.40;99.90;;;;;;4953713;28;20422;-70
2024/02/09 08:20:09;;;;;;;1999.90;999.90;;;12.40;98.90;;;;;;4954460;28;20180;-70
2024/02/09 08:22:35;;;;;;;1999.90;999.90;;;12.40;99.90;;;;;;4957497;28;20496;-70
2024/02/09 08:25:01;;;;;;;1999.90;999.90;;;12.40;99.90;;;;;;4957637;28;20499;-70
2024/02/09 08:27:27;;;;;;;1999.90;999.90;;;12.50;99.90;;;;;;4957534;28;20186;-70
2024/02/09 08:29:56;;;;;;;1999.90;999.90;;;12.50;99.90;;;;;;4957566;28;20450;-70
2024/02/09 08:32:27;;;;;;;1999.90;999.90;;;12.50;99.90;;;;;;4957362;28;20407;-70
2024/02/09 08:34:53;;;;;;;1999.90;999.90;;;12.50;99.90;;;;;;4957472;28;20767;-70
2024/02/09 08:37:24;;;;;;;1999.90;999.90;;;12.50;99.90;;;;;;4957319;28;20454;-70
2024/02/09 08:39:50;;;;;;;1999.90;999.90;;;12.50;99.90;;;;;;4957202;28;20411;-70
2024/02/09 08:42:16;;;;;;;1999.90;999.90;;;12.60;99.90;;;;;;4956969;28;20465;-70
2024/02/09 08:44:42;;;;;;;1999.90;999.90;;;12.50;99.90;;;;;;4957207;28;20498;-69
2024/02/09 08:47:10;;;;;;;1999.90;999.90;;;12.60;99.90;;;;;;4957182;28;20505;-70
2024/02/09 08:49:36;;;;;;;1999.90;999.90;;;12.50;99.90;;;;;;4956834;28;20213;-69
2024/02/09 08:52:03;;;;;;;1999.90;999.90;;;12.50;99.90;;;;;;4957114;28;20426;-69
2024/02/09 08:54:29;;;;;;;1999.90;999.90;;;12.50;99.90;;;;;;4956960;28;20431;-69
2024/02/09 08:57:00;;;;;;;1999.90;999.90;;;12.60;99.90;;;;;;4956935;28;20411;-70
2024/02/09 08:59:26;;;;;;;1999.90;999.90;;;12.70;99.90;;;;;;4956730;28;20466;-69
2024/02/09 09:01:52;;;;;;;1999.90;999.90;;;12.70;99.90;;;;;;4956940;28;20896;-70
2024/02/09 09:04:21;;;;;;;1999.90;999.90;;;12.80;99.90;;;;;;4956786;28;20204;-70
2024/02/09 09:06:46;;;;;;;1999.90;999.90;;;12.80;99.90;;;;;;4956727;28;20436;-69
2024/02/09 09:09:14;;;;;;;1999.90;999.90;;;12.90;99.90;;;;;;4956359;28;21105;-69
2024/02/09 09:11:44;;;;;;;1999.90;999.90;;;13.00;99.90;;;;;;4956959;28;20187;-70
2024/02/09 09:14:10;;;;;;;1999.90;999.90;;;13.00;99.90;;;;;;4956748;28;20438;-70
2024/02/09 09:16:37;;;;;;;1999.90;999.90;;;13.10;99.90;;;;;;4956682;28;20458;-70
2024/02/09 09:19:05;;;;;;;1999.90;999.90;;;13.10;99.90;;;;;;4956533;28;20510;-70
2024/02/09 09:21:31;;;;;;;1999.90;999.90;;;13.10;99.90;;;;;;4956531;28;20411;-70
2024/02/09 09:23:59;;;;;;;1999.90;999.90;;;13.10;99.90;;;;;;4956452;28;20823;-69
2024/02/09 09:26:30;;;;;;;1999.90;999.90;;;13.10;89.20;;;;;;4956655;28;20470;-70
2024/02/09 09:28:56;;;;;;;1999.90;999.90;;;13.10;91.20;;;;;;4956343;28;20466;-71
2024/02/09 09:31:22;;;;;;;1999.90;999.90;;;13.20;91.90;;;;;;4955826;28;20463;-70
2024/02/09 09:33:47;;;;;;;1999.90;999.90;;;13.20;91.50;;;;;;4956300;28;20444;-70
2024/02/09 09:36:13;;;;;;;1999.90;999.90;;;13.20;88.90;;;;;;4956279;28;20168;-70
2024/02/09 09:38:39;;;;;;;1999.90;999.90;;;13.20;90.00;;;;;;4956127;28;20788;-70
2024/02/09 09:41:05;;;;;;;1999.90;999.90;;;13.20;86.00;;;;;;4956221;28;20181;-70
2024/02/09 09:43:31;;;;;;;1999.90;999.90;;;13.20;85.20;;;;;;4955943;28;20331;-71
2024/02/09 09:45:56;;;;;;;1999.90;999.90;;;13.20;85.80;;;;;;4956123;28;20439;-70
2024/02/09 09:48:24;;;;;;;1999.90;999.90;;;13.20;85.20;;;;;;4955759;28;20191;-70
2024/02/09 09:50:52;;;;;;;1999.90;999.90;;;13.30;84.20;;;;;;4955935;28;20996;-70
2024/02/09 09:53:21;;;;;;;1999.90;999.90;;;13.30;86.70;;;;;;4955925;28;20445;-70
2024/02/09 09:55:48;;;;;;;1999.90;999.90;;;13.30;89.10;;;;;;4955917;28;20413;-70
2024/02/09 09:58:14;;;;;;;1999.90;999.90;;;13.20;91.40;;;;;;4951359;28;20416;-70
2024/02/09 10:00:40;;;;;;;1999.90;999.90;;;13.20;92.40;;;;;;4955503;28;20419;-70
2024/02/09 10:03:07;;;;;;;1999.90;999.90;;;13.10;92.70;;;;;;4955507;28;20440;-69
2024/02/09 10:05:35;;;;;;;1999.90;999.90;;;13.20;93.60;;;;;;4955095;28;20426;-70
2024/02/09 10:08:01;;;;;;;1999.90;999.90;;;13.10;94.20;;;;;;4955931;28;20480;-70
2024/02/09 10:10:28;;;;;;;1999.90;999.90;;;13.10;95.10;;;;;;4954950;28;20466;-70
2024/02/09 10:13:04;;;;;;;1999.90;999.90;;;13.10;95.70;;;;;;4955068;28;20530;-70
2024/02/09 10:15:30;;;;;;;1999.90;999.90;;;13.10;96.50;;;;;;4955609;28;20874;-69
2024/02/09 10:17:56;;;;;;;1999.90;999.90;;;13.20;97.60;;;;;;4955435;28;20417;-70
2024/02/09 10:20:22;;;;;;;1999.90;999.90;;;13.20;94.50;;;;;;4954318;28;20234;-71
2024/02/09 10:22:48;;;;;;;1999.90;999.90;;;13.20;94.60;;;;;;4955174;28;20529;-70
2024/02/09 10:25:19;;;;;;;1999.90;999.90;;;13.30;93.70;;;;;;4955335;28;20510;-70
2024/02/09 10:27:46;;;;;;;1999.90;999.90;;;13.30;94.20;;;;;;4954758;28;20182;-70
2024/02/09 10:30:13;;;;;;;1999.90;999.90;;;13.30;93.50;;;;;;4948701;28;20435;-70
2024/02/09 10:32:40;;;;;;;1999.90;999.90;;;13.30;93.90;;;;;;4954906;28;20193;-70
2024/02/09 10:35:06;;;;;;;1999.90;999.90;;;13.40;99.90;;;;;;4954724;28;20500;-69
2024/02/09 10:37:32;;;;;;;1999.90;999.90;;;13.40;99.90;;;;;;4955151;28;20400;-70
2024/02/09 10:39:59;;;;;;;1999.90;999.90;;;13.40;92.50;;;;;;4954332;29;20971;-72
2024/02/09 10:42:30;;;;;;;1999.90;999.90;;;13.30;99.90;;;;;;4953315;28;20207;-71
2024/02/09 10:44:56;;;;;;;1999.90;999.90;;;13.40;92.70;;;;;;4953854;29;20418;-70
2024/02/09 10:47:26;;;;;;;1999.90;999.90;;;13.40;93.10;;;;;;4954782;28;20400;-70
2024/02/09 10:49:56;;;;;;;1999.90;999.90;;;13.40;93.10;;;;;;4951242;28;20459;-70
2024/02/09 10:52:25;;;;;;;1999.90;999.90;;;13.50;99.90;;;;;;4953648;28;20411;-70
2024/02/09 10:54:56;;;;;;;1999.90;999.90;;;13.40;92.00;;;;;;4953025;28;20496;-70
2024/02/09 10:57:26;;;;;;;1999.90;999.90;;;13.40;92.10;;;;;;4952766;28;20466;-70
2024/02/09 10:59:52;;;;;;;1999.90;999.90;;;13.40;92.00;;;;;;4952266;28;20416;-71
2024/02/09 11:02:18;;;;;;;1999.90;999.90;;;13.20;99.90;;;;;;4953205;28;20779;-70
2024/02/09 11:04:44;;;;;;;1999.90;999.90;;;13.40;92.30;;;;;;4952915;28;20408;-70
2024/02/09 11:07:14;;;;;;;1999.90;999.90;;;13.40;92.60;;;;;;4953319;28;20418;-70
2024/02/09 11:09:43;;;;;;;1999.90;999.90;;;13.30;94.20;;;;;;4952248;28;20476;-70
2024/02/09 11:12:12;;;;;;;1999.90;999.90;;;13.30;99.90;;;;;;4952550;28;20466;-70
2024/02/09 11:14:38;;;;;;;1999.90;999.90;;;13.40;89.30;;;;;;4953286;28;20481;-70
2024/02/09 11:17:08;;;;;;;1999.90;999.90;;;13.40;89.40;;;;;;4953100;28;20424;-70
2024/02/09 11:19:38;;;;;;;1999.90;999.90;;;13.40;90.60;;;;;;4950782;29;20522;-70
2024/02/09 11:22:04;;;;;;;1999.90;999.90;;;13.40;91.60;;;;;;4952574;28;20939;-70
2024/02/09 11:24:31;;;;;;;1999.90;999.90;;;13.40;88.40;;;;;;4943564;28;20454;-70
2024/02/09 11:27:01;;;;;;;1999.90;999.90;;;13.40;85.50;;;;;;4939228;28;20438;-70
2024/02/09 11:29:27;;;;;;;1999.90;999.90;;;13.50;85.80;;;;;;4932977;29;20937;-70
2024/02/09 11:31:56;;;;;;;1999.90;999.90;;;13.50;85.70;;;;;;4933580;29;20412;-70
2024/02/09 11:34:24;;;;;;;1999.90;999.90;;;13.50;86.10;;;;;;4933297;29;20464;-70
2024/02/09 11:36:52;;;;;;;1999.90;999.90;;;13.50;85.40;;;;;;4933526;29;20420;-70
2024/02/09 11:39:21;;;;;;;1999.90;999.90;;;13.50;87.10;;;;;;4932782;29;21062;-71
2024/02/09 11:41:48;;;;;;;1999.90;999.90;;;13.60;1.00;;;;;;4932800;29;20410;-70
2024/02/09 11:44:14;;;;;;;1999.90;999.90;;;13.60;99.90;;;;;;4933283;29;20464;-72
2024/02/09 11:46:42;;;;;;;1999.90;999.90;;;13.70;99.90;;;;;;4933205;29;20463;-71
2024/02/09 11:49:07;;;;;;;1999.90;999.90;;;13.60;99.90;;;;;;4933369;29;20427;-69
2024/02/09 11:51:36;;;;;;;1999.90;999.90;;;13.70;99.90;;;;;;4934742;29;20931;-70
2024/02/09 11:54:03;;;;;;;1999.90;999.90;;;13.70;99.90;;;;;;4934086;29;20688;-70
2024/02/09 11:56:30;;;;;;;1999.90;999.90;;;13.80;1.00;;;;;;4934412;28;20435;-71
2024/02/09 11:58:56;;;;;;;1999.90;999.90;;;14.00;1.00;;;;;;4933783;29;21147;-70
2024/02/09 12:01:24;;;;;;;1999.90;999.90;;;14.30;99.90;;;;;;4934753;29;20418;-70
2024/02/09 12:03:50;;;;;;;1999.90;999.90;;;14.40;1.00;;;;;;4933976;29;20470;-70
2024/02/09 12:06:16;;;;;;;1999.90;999.90;;;14.50;1.00;;;;;;4933944;29;20413;-70
2024/02/09 12:08:41;;;;;;;1999.90;999.90;;;14.50;1.00;;;;;;4933807;29;20417;-70
2024/02/09 12:11:07;;;;;;;1999.90;999.90;;;14.50;1.00;;;;;;4933920;29;20196;-69
2024/02/09 12:13:33;;;;;;;1999.90;999.90;;;14.50;99.90;;;;;;4934286;29;20189;-70
2024/02/09 12:15:59;;;;;;;1999.90;999.90;;;14.70;1.00;;;;;;4934523;29;20178;-70
2024/02/09 12:18:26;;;;;;;1999.90;999.90;;;14.80;99.90;;;;;;4933985;29;20941;-71
2024/02/09 12:20:54;;;;;;;1999.90;999.90;;;15.10;99.90;;;;;;4934063;29;20185;-70
2024/02/09 12:23:25;;;;;;;1999.90;999.90;;;15.30;1.00;;;;;;4934458;29;20504;-70
2024/02/09 12:25:51;;;;;;;1999.90;999.90;;;15.30;99.90;;;;;;4934369;29;20987;-70
2024/02/09 12:28:23;;;;;;;1999.90;999.90;;;15.10;99.90;;;;;;4933435;29;20418;-71
2024/02/09 12:30:50;;;;;;;1999.90;999.90;;;14.90;1.00;;;;;;4947082;29;20556;-70
2024/02/09 12:33:23;;;;;;;1999.90;999.90;;;14.80;99.90;;;;;;4934189;29;20421;-70
2024/02/09 12:35:48;;;;;;;1999.90;999.90;;;14.70;99.90;;;;;;4934171;29;20906;-70
2024/02/09 12:38:17;;;;;;;1999.90;999.90;;;14.60;99.90;;;;;;4933811;29;20493;-70
2024/02/09 12:40:44;;;;;;;1999.90;999.90;;;14.60;1.00;;;;;;4931697;29;20191;-72
2024/02/09 12:43:13;;;;;;;1999.90;999.90;;;14.60;99.90;;;;;;4934066;28;20467;-70
2024/02/09 12:45:40;;;;;;;1999.90;999.90;;;14.50;1.00;;;;;;4934340;28;20412;-70
2024/02/09 12:48:06;;;;;;;1999.90;999.90;;;14.40;1.00;;;;;;4948535;29;20420;-70
2024/02/09 12:50:33;;;;;;;1999.90;999.90;;;14.40;1.00;;;;;;4934089;29;20972;-70
2024/02/09 12:52:59;;;;;;;1999.90;999.90;;;14.40;1.00;;;;;;4934073;29;20430;-70
2024/02/09 12:55:25;;;;;;;1999.90;999.90;;;14.50;1.00;;;;;;4933173;29;20418;-70
2024/02/09 12:57:52;;;;;;;1999.90;999.90;;;14.60;1.00;;;;;;4932231;29;20177;-71
2024/02/09 13:00:18;;;;;;;1999.90;999.90;;;14.70;1.00;;;;;;4933961;29;20180;-71
2024/02/09 13:02:44;;;;;;;1999.90;999.90;;;14.80;14.80;;;;;;4934165;29;20474;-71
2024/02/09 13:05:10;;;;;;;1999.90;999.90;;;15.00;99.90;;;;;;4933490;29;20406;-71
2024/02/09 13:07:36;;;;;;;1999.90;999.90;;;15.30;99.90;;;;;;4937319;29;20418;-71
2024/02/09 13:10:01;;;;;;;1999.90;999.90;;;15.30;99.90;;;;;;4936877;29;20608;-71
2024/02/09 13:12:27;;;;;;;1999.90;999.90;;;15.20;1.00;;;;;;4936918;29;20174;-70
2024/02/09 13:14:53;;;;;;;1999.90;999.90;;;15.10;1.00;;;;;;4937433;29;20182;-70
2024/02/09 13:17:19;;;;;;;1999.90;999.90;;;15.10;99.90;;;;;;4937226;29;20409;-71
2024/02/09 13:19:45;;;;;;;1999.90;999.90;;;15.00;91.00;;;;;;4935927;29;20658;-70
2024/02/09 13:22:11;;;;;;;1999.90;999.90;;;15.00;99.90;;;;;;4937152;29;20491;-70
2024/02/09 13:24:42;;;;;;;1999.90;999.90;;;14.90;1.00;;;;;;4937041;29;21023;-70
2024/02/09 13:27:12;;;;;;;1999.90;999.90;;;14.80;99.90;;;;;;4936790;29;20975;-70
2024/02/09 13:29:38;;;;;;;1999.90;999.90;;;14.70;1.00;;;;;;4936442;28;20978;-69
2024/02/09 13:32:04;;;;;;;1999.90;999.90;;;14.60;1.00;;;;;;4936945;29;20408;-69
2024/02/09 13:34:30;;;;;;;1999.90;999.90;;;14.60;99.90;;;;;;4936500;29;20188;-70
2024/02/09 13:36:56;;;;;;;1999.90;999.90;;;14.70;99.90;;;;;;4937150;29;20405;-70
2024/02/09 13:39:21;;;;;;;1999.90;999.90;;;14.60;99.90;;;;;;4936251;29;20461;-71
2024/02/09 13:41:47;;;;;;;1999.90;999.90;;;14.70;99.90;;;;;;4936359;29;20415;-70
2024/02/09 13:44:15;;;;;;;1999.90;999.90;;;14.70;39.40;;;;;;4936652;29;20578;-70
2024/02/09 13:46:42;;;;;;;1999.90;999.90;;;14.60;1.00;;;;;;4937323;28;20312;-70